createdAt,value
2018-05-10T00:01:57.732Z,98036.88
2018-05-10T00:04:26.514Z,98038.45
2018-05-10T00:06:55.346Z,98039.94
2018-05-10T00:09:24.251Z,98038.18
2018-05-10T00:11:52.745Z,98043.35
2018-05-10T00:14:21.337Z,98042.75
2018-05-10T00:16:50.660Z,98040.11
2018-05-10T00:19:19.167Z,98033.26
2018-05-10T00:21:48.807Z,98042.27
2018-05-10T00:24:17.931Z,98032.64
2018-05-10T00:26:46.943Z,98032.80
2018-05-10T00:29:15.665Z,98027.16
2018-05-10T00:31:44.174Z,98026.56
2018-05-10T00:34:12.906Z,98031.73
2018-05-10T00:36:42.398Z,98030.86
2018-05-10T00:39:11.175Z,98029.35
2018-05-10T00:41:40.437Z,98025.66
2018-05-10T00:44:09.161Z,98018.25
2018-05-10T00:46:38.869Z,98023.70
2018-05-10T00:49:07.413Z,98019.70
2018-05-10T00:51:36.188Z,98026.83
2018-05-10T00:54:05.666Z,98024.84
2018-05-10T00:56:35.462Z,98026.00
2018-05-10T00:59:04.274Z,98026.98
2018-05-10T01:01:33.051Z,98029.39
2018-05-10T01:04:01.694Z,98027.07
2018-05-10T01:06:30.463Z,98028.67
2018-05-10T01:08:59.055Z,98030.01
2018-05-10T01:11:27.725Z,98019.90
2018-05-10T01:13:56.320Z,98026.22
2018-05-10T01:16:24.893Z,98032.13
2018-05-10T01:18:53.579Z,98028.25
2018-05-10T01:21:22.286Z,98034.16
2018-05-10T01:23:51.842Z,98029.70
2018-05-10T01:26:21.054Z,98034.42
2018-05-10T01:28:50.357Z,98034.17
2018-05-10T01:31:21.047Z,98031.38
2018-05-10T01:33:50.317Z,98030.19
2018-05-10T01:36:19.718Z,98035.67
2018-05-10T01:38:48.489Z,98028.50
2018-05-10T01:41:17.079Z,98026.16
2018-05-10T01:43:45.565Z,98030.30
2018-05-10T01:46:15.051Z,98039.61
2018-05-10T01:48:43.829Z,98038.64
2018-05-10T01:51:12.343Z,98043.77
2018-05-10T01:53:41.143Z,98043.93
2018-05-10T01:56:09.747Z,98041.26
2018-05-10T01:58:40.329Z,98044.45
2018-05-10T02:01:09.756Z,98045.09
2018-05-10T02:03:38.526Z,98045.02
2018-05-10T02:06:07.043Z,98046.77
2018-05-10T02:08:35.719Z,98046.28
2018-05-10T02:11:05.234Z,98040.53
2018-05-10T02:13:34.796Z,98038.83
2018-05-10T02:16:03.274Z,98038.89
2018-05-10T02:18:31.993Z,98030.74
2018-05-10T02:21:00.809Z,98031.09
2018-05-10T02:23:29.496Z,98033.56
2018-05-10T02:25:58.974Z,98024.65
2018-05-10T02:28:27.949Z,98025.71
2018-05-10T02:30:57.353Z,98021.80
2018-05-10T02:33:28.055Z,98027.81
2018-05-10T02:35:56.911Z,98026.37
2018-05-10T02:38:26.257Z,98025.91
2018-05-10T02:40:54.878Z,98029.91
2018-05-10T02:43:24.792Z,98027.93
2018-05-10T02:45:53.417Z,98034.28
2018-05-10T02:48:21.910Z,98030.77
2018-05-10T02:50:50.605Z,98032.17
2018-05-10T02:53:19.283Z,98035.09
2018-05-10T02:55:48.644Z,98039.39
2018-05-10T02:58:17.346Z,98051.00
2018-05-10T03:00:46.656Z,98043.27
2018-05-10T03:03:16.568Z,98054.02
2018-05-10T03:05:45.851Z,98065.23
2018-05-10T03:08:15.114Z,98058.37
2018-05-10T03:10:43.773Z,98061.03
2018-05-10T03:13:12.475Z,98061.22
2018-05-10T03:15:41.678Z,98063.86
2018-05-10T03:18:11.429Z,98066.91
2018-05-10T03:20:40.077Z,98062.80
2018-05-10T03:23:08.736Z,98066.55
2018-05-10T03:25:37.352Z,98068.05
2018-05-10T03:28:06.058Z,98067.31
2018-05-10T03:30:35.350Z,98065.54
2018-05-10T03:33:04.610Z,98066.63
2018-05-10T03:35:33.410Z,98063.77
2018-05-10T03:38:01.996Z,98063.45
2018-05-10T03:40:30.611Z,98069.48
2018-05-10T03:42:59.224Z,98078.69
2018-05-10T03:45:27.813Z,98083.19
2018-05-10T03:47:56.442Z,98081.32
2018-05-10T03:50:25.064Z,98085.11
2018-05-10T03:52:53.649Z,98089.41
2018-05-10T03:55:22.267Z,98087.00
2018-05-10T03:57:50.762Z,98082.53
2018-05-10T04:00:19.762Z,98085.94
2018-05-10T04:06:39.940Z,98091.94
2018-05-10T04:09:26.195Z,98099.12
2018-05-10T04:11:55.660Z,98103.91
2018-05-10T04:14:24.449Z,98101.98
2018-05-10T04:16:53.144Z,98107.95
2018-05-10T04:19:22.782Z,98106.19
2018-05-10T04:21:51.403Z,98103.37
2018-05-10T04:24:20.052Z,98114.05
2018-05-10T04:26:48.558Z,98103.69
2018-05-10T04:29:17.138Z,98114.47
2018-05-10T04:31:45.802Z,98119.09
2018-05-10T04:34:14.390Z,98115.30
2018-05-10T04:36:43.763Z,98116.23
2018-05-10T04:39:13.806Z,98114.50
2018-05-10T04:41:42.433Z,98116.52
2018-05-10T04:44:10.982Z,98123.48
2018-05-10T04:46:39.552Z,98116.14
2018-05-10T04:49:08.805Z,98114.91
2018-05-10T04:51:38.389Z,98119.49
2018-05-10T04:54:07.056Z,98121.99
2018-05-10T04:56:35.625Z,98112.05
2018-05-10T04:59:04.885Z,98114.70
2018-05-10T05:01:33.495Z,98118.67
2018-05-10T05:04:02.144Z,98125.86
2018-05-10T05:06:31.474Z,98126.95
2018-05-10T05:09:00.110Z,98130.32
2018-05-10T05:11:28.623Z,98132.03
2018-05-10T05:13:57.179Z,98133.73
2018-05-10T05:16:25.747Z,98141.50
2018-05-10T05:18:54.390Z,98134.36
2018-05-10T05:21:23.050Z,98140.00
2018-05-10T05:23:52.206Z,98139.45
2018-05-10T05:26:22.105Z,98139.72
2018-05-10T05:28:50.712Z,98140.53
2018-05-10T05:31:19.434Z,98149.62
2018-05-10T05:33:47.969Z,98150.26
2018-05-10T05:36:16.609Z,98157.11
2018-05-10T05:38:45.274Z,98163.66
2018-05-10T05:41:14.404Z,98163.23
2018-05-10T05:43:42.936Z,98166.79
2018-05-10T05:46:11.473Z,98167.37
2018-05-10T05:48:40.056Z,98166.84
2018-05-10T05:51:09.670Z,98173.23
2018-05-10T05:53:38.899Z,98171.63
2018-05-10T05:56:07.854Z,98172.40
2018-05-10T05:58:36.838Z,98176.54
2018-05-10T06:01:05.765Z,98181.70
2018-05-10T06:03:34.473Z,98184.52
2018-05-10T06:06:03.126Z,98184.52
2018-05-10T06:08:32.651Z,98191.05
2018-05-10T06:11:01.237Z,98192.68
2018-05-10T06:13:29.843Z,98200.63
2018-05-10T06:15:58.990Z,98210.06
2018-05-10T06:18:27.853Z,98209.27
2018-05-10T06:20:58.084Z,98209.44
2018-05-10T06:23:27.550Z,98208.27
2018-05-10T06:25:56.374Z,98211.22
2018-05-10T06:28:25.840Z,98207.30
2018-05-10T06:30:55.865Z,98208.94
2018-05-10T06:33:24.442Z,98211.99
2018-05-10T06:35:53.741Z,98210.05
2018-05-10T06:38:22.699Z,98211.48
2018-05-10T06:40:51.483Z,98209.60
2018-05-10T06:43:21.158Z,98206.57
2018-05-10T06:45:49.922Z,98203.96
2018-05-10T06:48:19.272Z,98203.09
2018-05-10T06:50:47.862Z,98214.70
2018-05-10T06:53:16.485Z,98209.23
2018-05-10T06:55:45.615Z,98216.79
2018-05-10T06:58:14.391Z,98209.17
2018-05-10T07:00:44.641Z,98214.39
2018-05-10T07:03:14.037Z,98218.13
2018-05-10T07:05:42.865Z,98221.59
2018-05-10T07:08:12.724Z,98216.96
2018-05-10T07:10:41.754Z,98217.67
2018-05-10T07:13:10.532Z,98221.16
2018-05-10T07:15:39.353Z,98226.02
2018-05-10T07:18:08.416Z,98226.70
2018-05-10T07:20:37.495Z,98228.88
2018-05-10T07:23:07.583Z,98226.84
2018-05-10T07:25:36.755Z,98230.05
2018-05-10T07:28:05.871Z,98236.55
2018-05-10T07:30:35.641Z,98233.50
2018-05-10T07:33:05.392Z,98235.72
2018-05-10T07:35:35.289Z,98233.33
2018-05-10T07:38:05.239Z,98237.84
2018-05-10T07:40:34.333Z,98237.94
2018-05-10T07:43:03.617Z,98236.30
2018-05-10T07:45:33.164Z,98241.52
2018-05-10T07:48:03.307Z,98241.58
2018-05-10T07:50:32.115Z,98246.63
2018-05-10T07:53:01.128Z,98243.55
2018-05-10T07:55:30.059Z,98257.64
2018-05-10T07:57:59.504Z,98256.27
2018-05-10T08:00:29.184Z,98254.45
2018-05-10T08:02:58.821Z,98260.33
2018-05-10T08:05:27.711Z,98261.52
2018-05-10T08:07:56.595Z,98271.68
2018-05-10T08:10:26.440Z,98265.22
2018-05-10T08:12:55.947Z,98265.73
2018-05-10T08:15:25.664Z,98266.48
2018-05-10T08:17:54.454Z,98263.95
2018-05-10T08:20:23.362Z,98269.70
2018-05-10T08:22:52.349Z,98273.41
2018-05-10T08:25:22.129Z,98274.62
2018-05-10T08:27:51.902Z,98275.03
2018-05-10T08:30:22.256Z,98278.72
2018-05-10T08:32:51.191Z,98279.70
2018-05-10T08:35:20.104Z,98278.32
2018-05-10T08:37:48.795Z,98288.25
2018-05-10T08:40:17.825Z,98280.24
2018-05-10T08:42:46.956Z,98279.55
2018-05-10T08:45:15.669Z,98284.02
2018-05-10T08:47:44.495Z,98284.11
2018-05-10T08:50:13.275Z,98281.27
2018-05-10T08:52:42.450Z,98286.54
2018-05-10T08:55:13.046Z,98284.77
2018-05-10T08:57:42.844Z,98286.67
2018-05-10T09:00:13.293Z,98279.77
2018-05-10T09:02:42.366Z,98280.58
2018-05-10T09:05:11.151Z,98273.42
2018-05-10T09:07:39.933Z,98279.13
2018-05-10T09:10:08.878Z,98283.72
2018-05-10T09:12:37.797Z,98280.34
2018-05-10T09:15:07.597Z,98279.56
2018-05-10T09:17:37.967Z,98274.75
2018-05-10T09:20:06.740Z,98274.33
2018-05-10T09:22:36.784Z,98275.47
2018-05-10T09:25:06.238Z,98276.95
2018-05-10T09:27:35.504Z,98276.61
2018-05-10T09:30:04.478Z,98278.23
2018-05-10T09:32:33.335Z,98285.00
2018-05-10T09:35:02.783Z,98273.98
2018-05-10T09:37:31.587Z,98279.13
2018-05-10T09:40:00.217Z,98277.93
2018-05-10T09:42:28.905Z,98274.30
2018-05-10T09:44:57.517Z,98280.59
2018-05-10T09:47:26.172Z,98286.97
2018-05-10T09:49:54.843Z,98280.84
2018-05-10T09:52:24.240Z,98274.94
2018-05-10T09:54:53.660Z,98284.36
2018-05-10T09:57:24.111Z,98274.56
2018-05-10T09:59:54.110Z,98276.61
2018-05-10T10:02:24.081Z,98271.52
2018-05-10T10:04:53.310Z,98272.15
2018-05-10T10:07:22.652Z,98266.56
2018-05-10T10:09:51.222Z,98268.79
2018-05-10T10:12:20.635Z,98267.41
2018-05-10T10:14:50.007Z,98262.99
2018-05-10T10:17:18.601Z,98257.18
2018-05-10T10:19:47.462Z,98255.56
2018-05-10T10:22:16.640Z,98258.06
2018-05-10T10:24:45.644Z,98260.41
2018-05-10T10:27:14.817Z,98267.11
2018-05-10T10:29:44.358Z,98269.27
2018-05-10T10:32:13.772Z,98269.56
2018-05-10T10:34:42.503Z,98262.39
2018-05-10T10:37:12.059Z,98248.62
2018-05-10T10:39:40.713Z,98249.84
2018-05-10T10:42:09.329Z,98252.08
2018-05-10T10:44:38.757Z,98249.42
2018-05-10T10:47:08.224Z,98257.31
2018-05-10T10:49:37.330Z,98252.59
2018-05-10T10:52:06.422Z,98249.48
2018-05-10T10:54:35.117Z,98250.97
2018-05-10T10:57:04.906Z,98253.08
2018-05-10T10:59:34.944Z,98257.99
2018-05-10T11:02:03.593Z,98262.77
2018-05-10T11:04:32.476Z,98257.48
2018-05-10T11:07:01.211Z,98270.05
2018-05-10T11:09:29.811Z,98263.67
2018-05-10T11:11:58.386Z,98256.11
2018-05-10T11:14:26.981Z,98267.77
2018-05-10T11:16:55.650Z,98263.68
2018-05-10T11:19:24.949Z,98260.23
2018-05-10T11:21:53.690Z,98251.72
2018-05-10T11:24:22.274Z,98243.68
2018-05-10T11:26:50.968Z,98242.97
2018-05-10T11:29:19.955Z,98242.81
2018-05-10T11:31:48.909Z,98240.12
2018-05-10T11:34:18.187Z,98232.78
2018-05-10T11:36:46.821Z,98237.11
2018-05-10T11:39:15.391Z,98243.81
2018-05-10T11:41:43.966Z,98245.30
2018-05-10T11:44:12.534Z,98239.86
2018-05-10T11:46:42.323Z,98236.69
2018-05-10T11:49:11.121Z,98233.80
2018-05-10T11:51:39.998Z,98234.77
2018-05-10T11:54:08.695Z,98238.52
2018-05-10T11:56:37.363Z,98232.80
2018-05-10T11:59:06.097Z,98232.68
2018-05-10T12:01:34.693Z,98236.36
2018-05-10T12:04:03.817Z,98226.38
2018-05-10T12:06:33.232Z,98234.18
2018-05-10T12:09:02.261Z,98233.83
2018-05-10T12:11:30.921Z,98239.56
2018-05-10T12:14:00.355Z,98247.76
2018-05-10T12:16:29.123Z,98238.13
2018-05-10T12:18:57.796Z,98242.48
2018-05-10T12:21:26.577Z,98236.44
2018-05-10T12:23:55.364Z,98246.81
2018-05-10T12:26:25.488Z,98252.61
2018-05-10T12:28:54.304Z,98256.44
2018-05-10T12:31:22.863Z,98261.95
2018-05-10T12:33:51.465Z,98268.74
2018-05-10T12:36:20.219Z,98264.31
2018-05-10T12:38:50.318Z,98260.27
2018-05-10T12:41:19.567Z,98263.56
2018-05-10T12:43:48.179Z,98265.05
2018-05-10T12:46:17.527Z,98271.84
2018-05-10T12:48:48.252Z,98266.44
2018-05-10T12:51:16.906Z,98263.42
2018-05-10T12:53:45.723Z,98261.08
2018-05-10T12:56:14.483Z,98265.02
2018-05-10T12:58:43.075Z,98271.19
2018-05-10T13:01:11.752Z,98278.33
2018-05-10T13:03:40.353Z,98283.11
2018-05-10T13:06:09.058Z,98282.28
2018-05-10T13:08:37.881Z,98287.06
2018-05-10T13:11:07.292Z,98285.73
2018-05-10T13:13:36.733Z,98284.94
2018-05-10T13:16:05.496Z,98282.01
2018-05-10T13:18:34.755Z,98286.69
2018-05-10T13:21:04.199Z,98282.69
2018-05-10T13:23:32.952Z,98285.57
2018-05-10T13:26:02.360Z,98287.50
2018-05-10T13:28:31.011Z,98289.67
2018-05-10T13:30:59.625Z,98281.66
2018-05-10T13:33:28.299Z,98283.22
2018-05-10T13:35:57.692Z,98280.41
2018-05-10T13:38:26.466Z,98280.56
2018-05-10T13:40:55.015Z,98274.03
2018-05-10T13:43:24.123Z,98272.48
2018-05-10T13:45:53.556Z,98275.58
2018-05-10T13:48:23.079Z,98273.44
2018-05-10T13:50:52.636Z,98280.52
2018-05-10T13:53:22.734Z,98288.05
2018-05-10T13:55:51.400Z,98295.25
2018-05-10T13:58:20.056Z,98295.08
2018-05-10T14:00:48.709Z,98297.15
2018-05-10T14:03:17.316Z,98297.62
2018-05-10T14:05:46.052Z,98291.33
2018-05-10T14:08:14.701Z,98296.66
2018-05-10T14:10:44.191Z,98289.45
2018-05-10T14:13:12.911Z,98293.31
2018-05-10T14:15:42.813Z,98298.18
2018-05-10T14:18:12.898Z,98294.73
2018-05-10T14:20:41.498Z,98292.27
2018-05-10T14:23:10.574Z,98296.48
2018-05-10T14:25:39.298Z,98289.33
2018-05-10T14:28:07.992Z,98292.17
2018-05-10T14:30:36.627Z,98292.10
2018-05-10T14:33:05.433Z,98287.95
2018-05-10T14:35:34.904Z,98284.21
2018-05-10T14:38:03.549Z,98291.03
2018-05-10T14:40:32.207Z,98295.31
2018-05-10T14:43:01.646Z,98305.92
2018-05-10T14:45:30.261Z,98306.45
2018-05-10T14:48:02.509Z,98310.61
2018-05-10T14:50:32.034Z,98305.31
2018-05-10T14:53:02.093Z,98307.17
2018-05-10T14:55:31.762Z,98313.88
2018-05-10T14:58:00.904Z,98320.50
2018-05-10T15:00:29.923Z,98323.38
2018-05-10T15:02:58.615Z,98315.58
2018-05-10T15:05:27.372Z,98317.73
2018-05-10T15:07:57.047Z,98318.67
2018-05-10T15:10:25.859Z,98323.78
2018-05-10T15:12:54.808Z,98324.44
2018-05-10T15:15:23.864Z,98326.48
2018-05-10T15:17:53.341Z,98329.49
2018-05-10T15:20:22.892Z,98324.61
2018-05-10T15:22:51.712Z,98330.09
2018-05-10T15:25:20.507Z,98330.63
2018-05-10T15:27:49.957Z,98325.81
2018-05-10T15:30:18.686Z,98330.09
2018-05-10T15:32:48.024Z,98326.13
2018-05-10T15:35:16.882Z,98340.16
2018-05-10T15:37:45.610Z,98342.79
2018-05-10T15:40:14.228Z,98337.97
2018-05-10T15:42:42.882Z,98339.66
2018-05-10T15:45:12.454Z,98343.12
2018-05-10T15:47:42.265Z,98343.94
2018-05-10T15:50:11.728Z,98338.94
2018-05-10T15:52:40.421Z,98343.81
2018-05-10T15:55:09.808Z,98350.28
2018-05-10T15:57:40.747Z,98341.09
2018-05-10T16:00:09.763Z,98339.58
2018-05-10T16:02:38.631Z,98336.12
2018-05-10T16:05:07.400Z,98338.54
2018-05-10T16:07:36.849Z,98335.63
2018-05-10T16:10:05.633Z,98332.80
2018-05-10T16:12:34.641Z,98333.66
2018-05-10T16:15:05.040Z,98334.13
2018-05-10T16:17:34.821Z,98329.24
2018-05-10T16:20:05.694Z,98330.36
2018-05-10T16:22:34.583Z,98326.66
2018-05-10T16:25:03.755Z,98327.48
2018-05-10T16:30:07.402Z,98330.11
2018-05-10T16:32:36.109Z,98335.17
2018-05-10T16:35:05.749Z,98336.00
2018-05-10T16:37:34.456Z,98333.42
2018-05-10T16:40:03.264Z,98336.50
2018-05-10T16:42:32.693Z,98338.77
2018-05-10T16:45:02.466Z,98337.77
2018-05-10T16:47:31.183Z,98334.66
2018-05-10T16:50:00.538Z,98334.57
2018-05-10T16:52:29.682Z,98337.24
2018-05-10T16:54:58.443Z,98337.94
2018-05-10T16:57:28.253Z,98348.30
2018-05-10T16:59:56.838Z,98352.89
2018-05-10T17:02:25.564Z,98355.88
2018-05-10T17:04:54.272Z,98360.09
2018-05-10T17:07:23.037Z,98370.12
2018-05-10T17:09:51.859Z,98365.16
2018-05-10T17:12:20.661Z,98371.71
2018-05-10T17:14:50.106Z,98374.81
2018-05-10T17:17:19.280Z,98374.17
2018-05-10T17:19:48.060Z,98372.73
2018-05-10T17:22:16.684Z,98370.99
2018-05-10T17:24:45.504Z,98375.36
2018-05-10T17:27:14.208Z,98380.54
2018-05-10T17:29:42.835Z,98376.41
2018-05-10T17:32:11.445Z,98385.76
2018-05-10T17:34:41.088Z,98378.55
2018-05-10T17:37:10.955Z,98383.48
2018-05-10T17:39:40.653Z,98387.36
2018-05-10T17:42:09.532Z,98391.17
2018-05-10T17:44:38.288Z,98392.41
2018-05-10T17:47:07.178Z,98391.84
2018-05-10T17:49:36.501Z,98397.84
2018-05-10T17:52:05.445Z,98405.17
2018-05-10T17:54:34.136Z,98409.30
2018-05-10T17:57:02.744Z,98404.44
2018-05-10T17:59:31.347Z,98407.84
2018-05-10T18:01:59.979Z,98407.27
2018-05-10T18:04:28.542Z,98410.69
2018-05-10T18:06:57.316Z,98411.60
2018-05-10T18:09:26.001Z,98416.14
2018-05-10T18:11:55.466Z,98414.33
2018-05-10T18:14:24.080Z,98413.73
2018-05-10T18:16:52.751Z,98417.53
2018-05-10T18:19:22.209Z,98420.25
2018-05-10T18:21:51.341Z,98425.95
2018-05-10T18:24:21.172Z,98431.81
2018-05-10T18:26:50.890Z,98435.50
2018-05-10T18:29:20.535Z,98442.17
2018-05-10T18:31:50.723Z,98444.15
2018-05-10T18:34:20.079Z,98451.17
2018-05-10T18:36:49.127Z,98448.84
2018-05-10T18:39:18.270Z,98457.86
2018-05-10T18:41:47.060Z,98459.52
2018-05-10T18:44:15.839Z,98462.47
2018-05-10T18:46:45.185Z,98473.33
2018-05-10T18:49:14.487Z,98476.96
2018-05-10T18:51:43.902Z,98481.22
2018-05-10T18:54:13.126Z,98481.03
2018-05-10T18:56:41.702Z,98482.52
2018-05-10T18:59:11.765Z,98486.42
2018-05-10T19:01:40.435Z,98479.52
2018-05-10T19:04:09.689Z,98487.51
2018-05-10T19:06:38.421Z,98498.52
2018-05-10T19:09:08.902Z,98500.52
2018-05-10T19:11:39.727Z,98495.84
2018-05-10T19:14:12.309Z,98497.84
2018-05-10T19:16:41.928Z,98503.48
2018-05-10T19:19:11.701Z,98511.51
2018-05-10T19:21:40.972Z,98521.78
2018-05-10T19:24:09.958Z,98523.88
2018-05-10T19:26:42.845Z,98523.91
2018-05-10T19:29:11.931Z,98533.77
2018-05-10T19:31:40.703Z,98531.91
2018-05-10T19:34:09.259Z,98537.86
2018-05-10T19:36:38.368Z,98537.24
2018-05-10T19:39:07.359Z,98538.44
2018-05-10T19:41:36.463Z,98541.84
2018-05-10T19:44:05.613Z,98544.54
2018-05-10T19:46:35.789Z,98547.63
2018-05-10T19:49:05.970Z,98542.12
2018-05-10T19:51:36.846Z,98536.34
2018-05-10T19:54:08.250Z,98545.46
2018-05-10T19:56:40.028Z,98549.19
2018-05-10T19:59:13.201Z,98544.47
2018-05-10T20:01:42.865Z,98540.50
2018-05-10T20:04:13.468Z,98546.37
2018-05-10T20:06:43.506Z,98544.83
2018-05-10T20:09:12.601Z,98547.09
2018-05-10T20:11:42.033Z,98552.10
2018-05-10T20:14:11.900Z,98561.97
2018-05-10T20:16:41.506Z,98566.25
2018-05-10T20:19:10.293Z,98560.08
2018-05-10T20:21:39.497Z,98563.83
2018-05-10T20:24:09.178Z,98570.05
2018-05-10T20:26:38.849Z,98573.29
2018-05-10T20:29:07.791Z,98576.13
2018-05-10T20:31:37.031Z,98583.87
2018-05-10T20:34:08.100Z,98585.67
2018-05-10T20:36:38.566Z,98593.82
2018-05-10T20:39:07.362Z,98596.78
2018-05-10T20:41:37.419Z,98593.19
2018-05-10T20:44:06.790Z,98592.73
2018-05-10T20:46:35.537Z,98593.94
2018-05-10T20:49:04.192Z,98604.63
2018-05-10T20:51:33.036Z,98608.67
2018-05-10T20:54:03.057Z,98610.14
2018-05-10T20:56:34.702Z,98616.79
2018-05-10T20:59:05.180Z,98607.76
2018-05-10T21:01:35.369Z,98610.87
2018-05-10T21:04:04.603Z,98610.48
2018-05-10T21:06:33.857Z,98617.48
2018-05-10T21:09:03.122Z,98612.81
2018-05-10T21:11:32.443Z,98613.44
2018-05-10T21:14:02.019Z,98618.85
2018-05-10T21:16:31.290Z,98620.23
2018-05-10T21:19:00.153Z,98620.17
2018-05-10T21:21:28.994Z,98622.73
2018-05-10T21:23:58.383Z,98622.94
2018-05-10T21:26:27.320Z,98637.90
2018-05-10T21:28:56.426Z,98637.63
2018-05-10T21:31:26.456Z,98638.73
2018-05-10T21:33:55.690Z,98642.08
2018-05-10T21:36:24.437Z,98640.28
2018-05-10T21:38:54.014Z,98641.91
2018-05-10T21:41:22.924Z,98645.73
2018-05-10T21:43:51.792Z,98642.05
2018-05-10T21:46:21.095Z,98640.34
2018-05-10T21:48:50.393Z,98640.19
2018-05-10T21:51:19.293Z,98646.08
2018-05-10T21:53:48.497Z,98646.42
2018-05-10T21:56:17.932Z,98648.59
2018-05-10T21:58:47.995Z,98654.66
2018-05-10T22:01:18.419Z,98659.44
2018-05-10T22:03:48.006Z,98654.88
2018-05-10T22:06:17.385Z,98651.39
2018-05-10T22:08:47.501Z,98655.62
2018-05-10T22:11:16.316Z,98658.80
2018-05-10T22:13:45.035Z,98669.13
2018-05-10T22:16:13.763Z,98658.17
2018-05-10T22:18:43.165Z,98659.91
2018-05-10T22:21:12.419Z,98663.31
2018-05-10T22:23:43.787Z,98666.63
2018-05-10T22:26:13.497Z,98667.20
2018-05-10T22:28:43.039Z,98671.68
2018-05-10T22:31:13.562Z,98676.46
2018-05-10T22:33:42.776Z,98676.33
2018-05-10T22:36:13.461Z,98675.28
2018-05-10T22:38:43.330Z,98677.59
2018-05-10T22:41:13.336Z,98676.53
2018-05-10T22:43:42.626Z,98671.02
2018-05-10T22:46:11.838Z,98675.16
2018-05-10T22:48:42.808Z,98671.98
2018-05-10T22:51:13.281Z,98682.84
2018-05-10T22:53:43.601Z,98672.09
2018-05-10T22:56:13.085Z,98673.23
2018-05-10T22:58:42.533Z,98675.28
2018-05-10T23:01:11.236Z,98670.80
2018-05-10T23:03:41.021Z,98675.99
2018-05-10T23:06:09.891Z,98671.69
2018-05-10T23:08:39.302Z,98670.28
2018-05-10T23:11:09.450Z,98671.22
2018-05-10T23:13:38.992Z,98675.16
2018-05-10T23:16:09.187Z,98677.94
2018-05-10T23:18:39.744Z,98674.73
2018-05-10T23:21:09.965Z,98673.83
2018-05-10T23:23:39.566Z,98673.88
2018-05-10T23:26:08.630Z,98677.88
2018-05-10T23:28:39.537Z,98678.33
2018-05-10T23:31:08.528Z,98676.52
2018-05-10T23:33:37.281Z,98674.28
2018-05-10T23:36:06.038Z,98672.58
2018-05-10T23:38:35.018Z,98675.97
2018-05-10T23:41:03.840Z,98676.83
2018-05-10T23:43:34.213Z,98676.05
2018-05-10T23:46:03.604Z,98674.87
2018-05-10T23:48:33.268Z,98677.28
2018-05-10T23:51:02.793Z,98679.30
2018-05-10T23:53:31.559Z,98678.59
2018-05-10T23:56:02.323Z,98679.52
2018-05-10T23:58:32.472Z,98675.77
